createdAt,value
2022-12-17T00:01:14.682Z,37.78
2022-12-17T00:04:00.750Z,37.92
2022-12-17T00:06:46.872Z,37.47
2022-12-17T00:09:33.055Z,39.50
2022-12-17T00:12:18.975Z,38.05
2022-12-17T00:15:05.014Z,38.25
2022-12-17T00:17:50.996Z,35.97
2022-12-17T00:20:37.736Z,34.47
2022-12-17T00:23:27.123Z,35.47
2022-12-17T00:26:14.396Z,36.88
2022-12-17T00:29:00.346Z,35.03
2022-12-17T00:31:48.350Z,32.95
2022-12-17T00:34:34.624Z,34.70
2022-12-17T00:37:20.466Z,35.85
2022-12-17T00:40:06.687Z,35.53
2022-12-17T00:42:52.882Z,33.20
2022-12-17T00:45:49.972Z,31.65
2022-12-17T00:48:36.298Z,30.42
2022-12-17T00:51:22.482Z,31.02
2022-12-17T00:54:08.559Z,30.08
2022-12-17T00:56:54.550Z,27.90
2022-12-17T00:59:42.234Z,30.45
2022-12-17T01:02:28.475Z,29.00
2022-12-17T01:05:14.511Z,29.52
2022-12-17T01:08:01.593Z,31.35
2022-12-17T01:10:50.715Z,29.85
2022-12-17T01:13:37.019Z,32.88
2022-12-17T01:16:28.919Z,29.60
2022-12-17T01:19:15.062Z,30.35
2022-12-17T01:22:00.902Z,27.98
2022-12-17T01:24:46.966Z,30.73
2022-12-17T01:27:32.957Z,30.67
2022-12-17T01:30:19.131Z,28.83
2022-12-17T01:33:05.183Z,31.25
2022-12-17T01:35:51.213Z,32.78
2022-12-17T01:38:38.349Z,32.15
2022-12-17T01:41:24.566Z,32.22
2022-12-17T01:44:10.616Z,30.95
2022-12-17T01:47:01.051Z,30.63
2022-12-17T01:49:47.162Z,30.65
2022-12-17T01:52:33.081Z,31.52
2022-12-17T01:55:18.942Z,34.13
2022-12-17T01:58:05.098Z,33.58
2022-12-17T02:00:51.115Z,32.20
2022-12-17T02:03:37.554Z,34.28
2022-12-17T02:06:45.255Z,34.17
2022-12-17T02:09:50.976Z,34.00
2022-12-17T02:13:01.255Z,34.05
2022-12-17T02:16:13.564Z,34.83
2022-12-17T02:19:06.992Z,33.70
2022-12-17T02:21:53.038Z,33.80
2022-12-17T02:24:54.907Z,33.95
2022-12-17T02:27:40.978Z,34.30
2022-12-17T02:30:27.829Z,33.65
2022-12-17T02:33:13.601Z,34.35
2022-12-17T02:36:12.887Z,33.45
2022-12-17T02:38:59.074Z,34.28
2022-12-17T02:42:00.207Z,33.55
2022-12-17T02:44:47.403Z,33.47
2022-12-17T02:47:33.416Z,32.95
2022-12-17T02:50:19.353Z,33.10
2022-12-17T02:53:06.308Z,34.38
2022-12-17T02:55:53.202Z,32.10
2022-12-17T02:58:39.223Z,35.15
2022-12-17T03:01:25.521Z,32.22
2022-12-17T03:04:11.539Z,34.28
2022-12-17T03:07:14.325Z,34.33
2022-12-17T03:10:01.398Z,35.17
2022-12-17T03:12:49.320Z,37.72
2022-12-17T03:15:35.267Z,34.13
2022-12-17T03:18:21.423Z,35.00
2022-12-17T03:21:11.535Z,34.05
2022-12-17T03:23:59.164Z,36.58
2022-12-17T03:26:45.223Z,32.40
2022-12-17T03:29:31.371Z,34.15
2022-12-17T03:32:17.409Z,33.45
2022-12-17T03:35:03.584Z,34.72
2022-12-17T03:37:49.566Z,34.30
2022-12-17T03:40:35.475Z,32.88
2022-12-17T03:43:27.828Z,33.25
2022-12-17T03:46:14.064Z,34.40
2022-12-17T03:48:59.774Z,32.15
2022-12-17T03:51:45.697Z,36.28
2022-12-17T03:54:31.818Z,35.25
2022-12-17T03:57:17.844Z,34.33
2022-12-17T04:00:03.849Z,34.20
2022-12-17T04:02:58.177Z,34.42
2022-12-17T04:05:44.141Z,35.92
2022-12-17T04:08:30.141Z,32.13
2022-12-17T04:11:16.180Z,34.05
2022-12-17T04:14:02.213Z,35.83
2022-12-17T04:16:48.181Z,36.03
2022-12-17T04:19:34.231Z,34.38
2022-12-17T04:22:20.249Z,33.83
2022-12-17T04:25:06.077Z,34.42
2022-12-17T04:27:59.665Z,32.72
2022-12-17T04:30:45.739Z,31.42
2022-12-17T04:33:31.758Z,31.75
2022-12-17T04:36:17.839Z,32.25
2022-12-17T04:39:03.781Z,30.02
2022-12-17T04:41:49.804Z,32.15
2022-12-17T04:44:35.906Z,32.35
2022-12-17T04:47:22.038Z,30.05
2022-12-17T04:50:08.841Z,32.08
2022-12-17T04:52:54.761Z,30.30
2022-12-17T04:55:40.762Z,32.25
2022-12-17T04:58:26.767Z,33.97
2022-12-17T05:01:15.888Z,31.33
2022-12-17T05:04:01.853Z,32.90
2022-12-17T05:06:47.591Z,33.22
2022-12-17T05:09:33.670Z,36.40
2022-12-17T05:12:19.721Z,30.38
2022-12-17T05:15:05.692Z,31.75
2022-12-17T05:17:51.664Z,33.00
2022-12-17T05:20:37.698Z,33.25
2022-12-17T05:23:25.331Z,35.15
2022-12-17T05:26:45.159Z,32.10
2022-12-17T05:29:31.281Z,34.97
2022-12-17T05:32:17.319Z,37.97
2022-12-17T05:35:03.349Z,42.45
2022-12-17T05:37:49.199Z,47.17
2022-12-17T05:40:35.087Z,49.67
2022-12-17T05:43:28.220Z,48.05
2022-12-17T05:46:14.305Z,49.15
2022-12-17T05:49:06.179Z,43.38
2022-12-17T05:51:52.110Z,43.25
2022-12-17T05:54:38.334Z,41.80
2022-12-17T05:57:24.367Z,44.63
2022-12-17T06:00:10.297Z,42.55
2022-12-17T06:02:59.164Z,45.15
2022-12-17T06:05:45.485Z,46.53
2022-12-17T06:08:31.346Z,49.45
2022-12-17T06:11:18.493Z,50.38
2022-12-17T06:14:05.174Z,48.25
2022-12-17T06:16:51.093Z,47.22
2022-12-17T06:19:37.083Z,51.80
2022-12-17T06:22:23.158Z,50.47
2022-12-17T06:25:09.083Z,50.80
2022-12-17T06:27:55.091Z,48.28
2022-12-17T06:30:44.096Z,46.00
2022-12-17T06:33:30.226Z,48.33
2022-12-17T06:36:22.151Z,45.75
2022-12-17T06:39:22.365Z,50.20
2022-12-17T06:42:08.346Z,46.95
2022-12-17T06:44:54.847Z,46.97
2022-12-17T06:47:41.066Z,49.28
2022-12-17T06:50:26.853Z,46.20
2022-12-17T06:53:23.633Z,49.97
2022-12-17T06:56:09.657Z,48.35
2022-12-17T06:58:55.553Z,47.65
2022-12-17T07:01:40.986Z,44.05
2022-12-17T07:04:27.023Z,47.13
2022-12-17T07:07:12.996Z,47.88
2022-12-17T07:09:59.054Z,48.85
2022-12-17T07:12:44.801Z,47.15
2022-12-17T07:15:30.821Z,45.75
2022-12-17T07:18:21.008Z,45.55
2022-12-17T07:21:06.968Z,50.42
2022-12-17T07:23:52.992Z,48.83
2022-12-17T07:26:39.164Z,46.90
2022-12-17T07:29:24.977Z,44.83
2022-12-17T07:32:11.099Z,46.70
2022-12-17T07:34:57.203Z,46.20
2022-12-17T07:37:43.283Z,45.10
2022-12-17T07:40:29.683Z,47.55
2022-12-17T07:43:15.490Z,42.65
2022-12-17T07:46:01.694Z,45.35
2022-12-17T07:48:47.840Z,46.17
2022-12-17T07:51:33.967Z,47.22
2022-12-17T07:54:20.259Z,43.30
2022-12-17T07:57:06.232Z,50.00
2022-12-17T07:59:52.310Z,46.00
2022-12-17T08:02:38.279Z,47.88
2022-12-17T08:05:24.461Z,47.30
2022-12-17T08:08:10.430Z,49.60
2022-12-17T08:10:56.397Z,46.15
2022-12-17T08:13:42.286Z,47.10
2022-12-17T08:16:28.552Z,46.20
2022-12-17T08:19:14.575Z,46.50
2022-12-17T08:22:00.795Z,45.65
2022-12-17T08:24:46.896Z,47.10
2022-12-17T08:27:32.799Z,47.40
2022-12-17T08:30:18.875Z,48.20
2022-12-17T08:33:04.924Z,48.72
2022-12-17T08:35:50.889Z,46.97
2022-12-17T08:38:36.872Z,46.00
2022-12-17T08:41:22.751Z,49.40
2022-12-17T08:44:08.573Z,48.08
2022-12-17T08:46:54.449Z,48.97
2022-12-17T08:49:40.508Z,49.60
2022-12-17T08:52:26.511Z,50.25
2022-12-17T08:55:12.148Z,51.65
2022-12-17T08:57:59.116Z,47.53
2022-12-17T09:00:45.193Z,47.30
2022-12-17T09:03:31.179Z,45.90
2022-12-17T09:06:17.130Z,49.15
2022-12-17T09:09:03.056Z,51.97
2022-12-17T09:11:49.018Z,52.80
2022-12-17T09:14:35.022Z,50.08
2022-12-17T09:17:20.976Z,50.38
2022-12-17T09:20:06.961Z,47.95
2022-12-17T09:22:53.081Z,51.08
2022-12-17T09:25:39.087Z,48.75
2022-12-17T09:28:25.053Z,48.30
2022-12-17T09:31:13.547Z,48.97
2022-12-17T09:33:59.480Z,53.40
2022-12-17T09:36:51.047Z,51.10
2022-12-17T09:39:37.584Z,49.33
2022-12-17T09:43:01.311Z,49.58
2022-12-17T09:45:56.398Z,47.97
2022-12-17T09:49:20.981Z,53.20
2022-12-17T09:52:07.017Z,51.33
2022-12-17T09:55:02.028Z,51.97
2022-12-17T09:57:51.975Z,48.38
2022-12-17T10:00:39.031Z,48.88
2022-12-17T10:03:34.543Z,55.08
2022-12-17T10:06:29.790Z,46.72
2022-12-17T10:12:04.598Z,48.75
2022-12-17T10:14:50.317Z,49.58
2022-12-17T10:17:41.881Z,52.25
2022-12-17T10:21:09.307Z,52.20
2022-12-17T10:23:55.085Z,47.67
2022-12-17T10:26:44.246Z,52.92
2022-12-17T10:29:47.654Z,50.40
2022-12-17T10:32:33.855Z,49.25
2022-12-17T10:35:25.771Z,48.72
2022-12-17T10:38:11.888Z,51.30
2022-12-17T10:40:57.900Z,51.75
2022-12-17T10:43:46.414Z,50.95
2022-12-17T10:46:45.715Z,52.58
2022-12-17T10:49:39.663Z,49.97
2022-12-17T10:52:49.671Z,52.88
2022-12-17T10:55:46.813Z,51.63
2022-12-17T10:58:40.772Z,52.67
2022-12-17T11:01:29.861Z,52.60
2022-12-17T11:04:19.000Z,52.72
2022-12-17T11:07:07.808Z,54.95
2022-12-17T11:10:09.590Z,54.30
2022-12-17T11:13:09.917Z,54.53
2022-12-17T11:16:10.696Z,52.33
2022-12-17T11:19:22.830Z,57.38
2022-12-17T11:22:30.208Z,56.33
2022-12-17T11:25:43.244Z,53.70
2022-12-17T11:28:41.740Z,50.15
2022-12-17T11:31:36.548Z,49.22
2022-12-17T11:34:49.307Z,51.20
2022-12-17T11:37:40.867Z,51.53
2022-12-17T11:40:52.474Z,49.42
2022-12-17T11:44:25.482Z,53.70
2022-12-17T11:47:39.488Z,46.97
2022-12-17T11:50:40.201Z,53.35
2022-12-17T11:54:16.696Z,51.67
2022-12-17T11:57:24.872Z,50.35
2022-12-17T12:00:34.651Z,53.75
2022-12-17T12:03:30.758Z,50.65
2022-12-17T12:06:18.470Z,53.53
2022-12-17T12:09:32.385Z,54.50
2022-12-17T12:12:24.047Z,49.53
2022-12-17T12:15:45.625Z,51.58
2022-12-17T12:19:32.595Z,49.58
2022-12-17T12:22:43.774Z,49.97
2022-12-17T12:25:50.483Z,49.97
2022-12-17T12:28:47.851Z,48.85
2022-12-17T12:32:13.779Z,49.92
2022-12-17T12:40:50.418Z,45.90
2022-12-17T12:43:48.214Z,44.30
2022-12-17T12:46:47.489Z,47.35
2022-12-17T12:49:51.414Z,43.92
2022-12-17T12:52:42.304Z,43.35
2022-12-17T12:55:28.257Z,46.85
2022-12-17T12:58:19.808Z,42.50
2022-12-17T13:01:08.508Z,44.60
2022-12-17T13:04:01.961Z,41.95
2022-12-17T13:06:55.432Z,43.85
2022-12-17T13:09:34.214Z,43.55
2022-12-17T13:12:04.858Z,44.08
2022-12-17T13:14:46.124Z,44.00
2022-12-17T13:17:16.557Z,43.78
2022-12-17T13:20:01.754Z,44.05
2022-12-17T13:22:33.695Z,41.97
2022-12-17T13:25:19.659Z,43.95
2022-12-17T13:27:47.133Z,42.25
2022-12-17T13:30:17.339Z,40.90
2022-12-17T13:33:22.449Z,42.60
2022-12-17T13:36:10.476Z,42.85
2022-12-17T13:39:00.077Z,40.97
2022-12-17T13:41:42.710Z,38.85
2022-12-17T13:44:25.811Z,41.10
2022-12-17T13:46:55.190Z,41.45
2022-12-17T13:49:28.152Z,39.88
2022-12-17T13:52:09.643Z,41.45
2022-12-17T13:54:38.969Z,41.58
2022-12-17T13:57:13.181Z,40.55
2022-12-17T13:59:40.945Z,40.20
2022-12-17T14:02:28.351Z,42.67
2022-12-17T14:05:04.157Z,43.00
2022-12-17T14:07:37.537Z,42.72
2022-12-17T14:10:05.739Z,42.13
2022-12-17T14:12:35.412Z,39.63
2022-12-17T14:15:08.607Z,40.40
2022-12-17T14:17:42.606Z,39.42
2022-12-17T14:20:18.769Z,38.28
2022-12-17T14:22:59.346Z,41.80
2022-12-17T14:25:30.973Z,39.38
2022-12-17T14:28:02.559Z,40.95
2022-12-17T14:31:02.708Z,38.15
2022-12-17T14:33:30.978Z,35.78
2022-12-17T14:36:08.907Z,36.42
2022-12-17T14:38:38.687Z,37.72
2022-12-17T14:41:35.905Z,36.60
2022-12-17T14:44:03.257Z,33.35
2022-12-17T14:46:30.719Z,34.38
2022-12-17T14:49:02.464Z,34.60
2022-12-17T14:51:40.383Z,35.20
2022-12-17T14:54:32.233Z,34.67
2022-12-17T14:56:59.994Z,34.30
2022-12-17T14:59:34.866Z,34.47
2022-12-17T15:02:28.829Z,33.97
2022-12-17T15:05:01.432Z,34.60
2022-12-17T15:07:30.931Z,33.30
2022-12-17T15:09:58.406Z,35.03
2022-12-17T15:12:25.898Z,38.55
2022-12-17T15:14:53.092Z,35.55
2022-12-17T15:17:20.279Z,36.58
2022-12-17T15:19:51.369Z,36.47
2022-12-17T15:22:22.865Z,35.70
2022-12-17T15:24:50.017Z,35.95
2022-12-17T15:27:17.666Z,34.85
2022-12-17T15:29:45.966Z,36.67
2022-12-17T15:32:23.435Z,35.85
2022-12-17T15:34:50.669Z,37.33
2022-12-17T15:37:23.977Z,36.97
2022-12-17T15:39:52.961Z,36.20
2022-12-17T15:42:38.772Z,34.42
2022-12-17T15:45:06.799Z,35.83
2022-12-17T15:47:33.983Z,33.50
2022-12-17T15:50:02.251Z,35.47
2022-12-17T15:52:29.420Z,32.78
2022-12-17T15:54:56.599Z,35.05
2022-12-17T15:57:23.844Z,32.95
2022-12-17T15:59:51.814Z,34.42
2022-12-17T16:02:19.184Z,32.75
2022-12-17T16:04:46.489Z,31.77
2022-12-17T16:07:16.759Z,29.23
2022-12-17T16:09:46.102Z,32.42
2022-12-17T16:12:13.303Z,30.08
2022-12-17T16:14:40.533Z,29.60
2022-12-17T16:17:07.794Z,26.98
2022-12-17T16:19:34.916Z,27.48
2022-12-17T16:22:02.163Z,29.20
2022-12-17T16:24:29.316Z,27.98
2022-12-17T16:27:02.429Z,29.98
2022-12-17T16:29:31.706Z,29.13
2022-12-17T16:31:59.806Z,28.73
2022-12-17T16:34:27.904Z,28.77
2022-12-17T16:36:57.335Z,29.73
2022-12-17T16:39:24.530Z,28.90
2022-12-17T16:41:51.707Z,30.63
2022-12-17T16:44:19.045Z,28.27
2022-12-17T16:46:46.595Z,28.27
2022-12-17T16:49:23.790Z,32.75
2022-12-17T16:51:51.816Z,31.60
2022-12-17T16:54:21.740Z,30.02
2022-12-17T16:56:49.188Z,28.73
2022-12-17T16:59:16.646Z,29.63
2022-12-17T17:01:46.770Z,28.05
2022-12-17T17:04:15.111Z,29.92
2022-12-17T17:07:09.686Z,27.02
2022-12-17T17:09:37.457Z,27.08
2022-12-17T17:12:05.027Z,28.65
2022-12-17T17:14:32.194Z,28.42
2022-12-17T17:16:59.547Z,28.00
2022-12-17T17:19:26.687Z,27.13
2022-12-17T17:21:54.177Z,27.38
2022-12-17T17:24:23.871Z,29.77
2022-12-17T17:26:51.376Z,27.10
2022-12-17T17:29:21.212Z,28.45
2022-12-17T17:34:39.641Z,28.27
2022-12-17T17:39:37.358Z,25.35
2022-12-17T17:42:04.765Z,25.05
2022-12-17T17:44:32.064Z,28.77
2022-12-17T17:46:59.327Z,28.15
2022-12-17T17:49:26.647Z,28.33
2022-12-17T17:52:11.334Z,27.80
2022-12-17T17:54:42.530Z,28.05
2022-12-17T17:57:10.158Z,26.52
2022-12-17T17:59:39.351Z,26.02
2022-12-17T18:02:07.132Z,26.33
2022-12-17T18:04:37.525Z,27.55
2022-12-17T18:09:54.723Z,27.25
2022-12-17T18:12:40.534Z,29.10
2022-12-17T18:15:17.292Z,25.60
2022-12-17T18:17:47.570Z,27.95
2022-12-17T18:20:14.891Z,26.85
2022-12-17T18:22:42.416Z,27.65
2022-12-17T18:25:10.551Z,27.83
2022-12-17T18:27:38.693Z,30.02
2022-12-17T18:30:06.527Z,26.40
2022-12-17T18:32:33.688Z,28.58
2022-12-17T18:35:00.819Z,27.60
2022-12-17T18:37:28.033Z,29.30
2022-12-17T18:39:55.265Z,29.33
2022-12-17T18:42:41.119Z,28.30
2022-12-17T18:45:08.746Z,30.60
2022-12-17T18:47:35.889Z,29.80
2022-12-17T18:50:03.158Z,27.10
2022-12-17T18:52:30.321Z,28.45
2022-12-17T18:54:57.460Z,30.27
2022-12-17T18:57:24.596Z,27.80
2022-12-17T18:59:51.791Z,29.15
2022-12-17T19:02:19.165Z,28.73
2022-12-17T19:04:46.359Z,30.80
2022-12-17T19:07:13.514Z,28.20
2022-12-17T19:09:42.281Z,29.10
2022-12-17T19:12:09.614Z,26.90
2022-12-17T19:14:36.933Z,27.27
2022-12-17T19:17:05.134Z,29.65
2022-12-17T19:19:32.447Z,27.90
2022-12-17T19:22:00.427Z,28.58
2022-12-17T19:24:27.905Z,29.23
2022-12-17T19:26:55.154Z,28.70
2022-12-17T19:29:22.513Z,30.67
2022-12-17T19:31:50.022Z,26.17
2022-12-17T19:34:18.534Z,26.08
2022-12-17T19:36:46.024Z,27.85
2022-12-17T19:39:19.209Z,28.02
2022-12-17T19:41:46.738Z,25.65
2022-12-17T19:44:15.405Z,29.05
2022-12-17T19:46:42.815Z,30.90
2022-12-17T19:49:14.380Z,28.23
2022-12-17T19:51:44.093Z,27.75
2022-12-17T19:54:13.790Z,29.75
2022-12-17T19:56:41.157Z,26.98
2022-12-17T19:59:09.683Z,26.88
2022-12-17T20:01:43.012Z,27.55
2022-12-17T20:04:12.502Z,25.88
2022-12-17T20:06:39.656Z,24.05
2022-12-17T20:09:06.933Z,27.08
2022-12-17T20:11:35.053Z,27.27
2022-12-17T20:14:16.318Z,26.15
2022-12-17T20:16:51.715Z,24.77
2022-12-17T20:19:21.824Z,24.17
2022-12-17T20:21:50.107Z,25.67
2022-12-17T20:24:17.557Z,24.13
2022-12-17T20:26:45.204Z,23.88
2022-12-17T20:29:12.440Z,26.33
2022-12-17T20:31:39.762Z,26.80
2022-12-17T20:34:08.173Z,23.92
2022-12-17T20:36:35.589Z,28.45
2022-12-17T20:39:05.563Z,27.67
2022-12-17T20:41:33.140Z,24.65
2022-12-17T20:44:04.399Z,27.20
2022-12-17T20:46:38.132Z,24.05
2022-12-17T20:49:05.662Z,23.65
2022-12-17T20:51:33.162Z,25.40
2022-12-17T20:54:00.932Z,25.40
2022-12-17T20:56:32.619Z,23.50
2022-12-17T20:59:08.658Z,22.80
2022-12-17T21:01:36.582Z,25.13
2022-12-17T21:04:04.228Z,23.05
2022-12-17T21:06:36.598Z,23.40
2022-12-17T21:09:04.046Z,23.63
2022-12-17T21:11:32.241Z,24.55
2022-12-17T21:14:07.068Z,24.70
2022-12-17T21:16:34.878Z,26.33
2022-12-17T21:19:02.394Z,23.70
2022-12-17T21:21:31.671Z,24.55
2022-12-17T21:23:59.205Z,22.95
2022-12-17T21:26:34.476Z,25.55
2022-12-17T21:29:02.745Z,21.92
2022-12-17T21:31:50.409Z,21.50
2022-12-17T21:34:22.505Z,21.60
2022-12-17T21:36:50.429Z,20.90
2022-12-17T21:39:18.191Z,24.58
2022-12-17T21:42:05.483Z,24.00
2022-12-17T21:44:32.702Z,24.48
2022-12-17T21:47:00.097Z,25.10
2022-12-17T21:49:27.372Z,23.52
2022-12-17T21:51:59.127Z,23.02
2022-12-17T21:54:26.373Z,23.27
2022-12-17T21:56:53.607Z,21.05
2022-12-17T21:59:20.822Z,23.15
2022-12-17T22:01:48.067Z,21.65
2022-12-17T22:04:15.342Z,22.35
2022-12-17T22:06:58.504Z,22.35
2022-12-17T22:09:43.362Z,22.52
2022-12-17T22:12:37.635Z,22.00
2022-12-17T22:15:07.394Z,23.50
2022-12-17T22:17:35.242Z,24.23
2022-12-17T22:20:03.038Z,23.98
2022-12-17T22:22:30.306Z,23.30
2022-12-17T22:24:59.204Z,23.63
2022-12-17T22:27:30.891Z,24.52
2022-12-17T22:30:16.886Z,26.15
2022-12-17T22:33:24.507Z,27.02
2022-12-17T22:37:45.129Z,28.10
2022-12-17T22:42:32.027Z,25.05
2022-12-17T22:44:32.403Z,24.73
2022-12-17T22:44:51.678Z,23.30
2022-12-17T22:47:20.153Z,22.38
2022-12-17T22:49:47.272Z,22.17
2022-12-17T22:52:14.657Z,22.77
2022-12-17T22:54:44.685Z,22.20
2022-12-17T22:57:12.358Z,22.00
2022-12-17T22:59:59.548Z,22.08
2022-12-17T23:02:27.038Z,22.65
2022-12-17T23:04:54.252Z,23.27
2022-12-17T23:07:23.650Z,22.05
2022-12-17T23:09:54.122Z,22.88
2022-12-17T23:12:40.129Z,23.10
2022-12-17T23:15:07.946Z,26.15
2022-12-17T23:17:35.504Z,27.05
2022-12-17T23:20:02.700Z,24.63
2022-12-17T23:22:30.024Z,24.90
2022-12-17T23:24:57.281Z,23.67
2022-12-17T23:27:24.542Z,27.33
2022-12-17T23:29:51.725Z,25.80
2022-12-17T23:32:18.852Z,24.83
2022-12-17T23:34:45.983Z,26.65
2022-12-17T23:37:13.178Z,26.35
2022-12-17T23:39:40.330Z,25.27
2022-12-17T23:42:07.683Z,25.73
2022-12-17T23:44:34.959Z,26.00
2022-12-17T23:47:02.243Z,24.13
2022-12-17T23:49:29.521Z,23.17
2022-12-17T23:51:56.805Z,28.05
2022-12-17T23:54:24.804Z,24.88
2022-12-17T23:56:52.049Z,27.65
2022-12-17T23:59:19.253Z,23.00
